createdAt,value
2018-03-14T00:00:37.856Z,78.40
2018-03-14T00:03:04.466Z,78.51
2018-03-14T00:05:31.074Z,78.39
2018-03-14T00:07:58.470Z,78.37
2018-03-14T00:10:25.129Z,78.33
2018-03-14T00:12:51.735Z,78.65
2018-03-14T00:15:19.160Z,78.58
2018-03-14T00:17:45.764Z,78.71
2018-03-14T00:20:13.132Z,78.35
2018-03-14T00:22:39.755Z,78.27
2018-03-14T00:25:07.136Z,78.50
2018-03-14T00:27:33.759Z,78.86
2018-03-14T00:30:00.408Z,78.85
2018-03-14T00:32:26.989Z,78.98
2018-03-14T00:34:54.510Z,78.86
2018-03-14T00:37:21.250Z,78.78
2018-03-14T00:39:47.878Z,78.74
2018-03-14T00:42:14.484Z,78.75
2018-03-14T00:44:41.077Z,78.80
2018-03-14T00:47:07.662Z,78.78
2018-03-14T00:49:34.252Z,78.99
2018-03-14T00:52:00.910Z,79.44
2018-03-14T00:54:27.510Z,79.53
2018-03-14T00:56:54.133Z,79.38
2018-03-14T00:59:20.720Z,79.40
2018-03-14T01:01:47.377Z,79.43
2018-03-14T01:04:13.987Z,79.40
2018-03-14T01:06:40.616Z,79.47
2018-03-14T01:09:08.623Z,79.24
2018-03-14T01:11:35.365Z,79.29
2018-03-14T01:14:01.950Z,79.32
2018-03-14T01:16:28.588Z,79.37
2018-03-14T01:18:55.209Z,79.14
2018-03-14T01:21:21.836Z,79.03
2018-03-14T01:23:48.411Z,78.61
2018-03-14T01:26:15.022Z,78.79
2018-03-14T01:28:41.662Z,79.02
2018-03-14T01:31:08.250Z,79.25
2018-03-14T01:33:34.850Z,79.52
2018-03-14T01:36:01.430Z,79.45
2018-03-14T01:38:28.078Z,79.95
2018-03-14T01:40:56.400Z,79.80
2018-03-14T01:43:24.150Z,79.56
2018-03-14T01:45:50.745Z,79.10
2018-03-14T01:48:17.354Z,79.07
2018-03-14T01:50:43.958Z,79.21
2018-03-14T01:53:28.268Z,79.18
2018-03-14T01:55:55.623Z,79.39
2018-03-14T01:58:22.979Z,79.24
2018-03-14T02:00:49.598Z,79.01
2018-03-14T02:03:16.185Z,78.93
2018-03-14T02:05:42.839Z,79.47
2018-03-14T02:08:09.468Z,79.37
2018-03-14T02:10:36.443Z,79.39
2018-03-14T02:13:03.075Z,79.47
2018-03-14T02:15:29.668Z,79.64
2018-03-14T02:17:57.050Z,79.35
2018-03-14T02:20:23.672Z,79.19
2018-03-14T02:22:50.271Z,79.46
2018-03-14T02:25:16.868Z,79.67
2018-03-14T02:27:43.492Z,79.43
2018-03-14T02:30:10.271Z,79.26
2018-03-14T02:32:36.903Z,79.37
2018-03-14T02:35:03.497Z,79.46
2018-03-14T02:37:30.085Z,79.49
2018-03-14T02:39:56.685Z,79.67
2018-03-14T02:42:23.297Z,79.66
2018-03-14T02:44:49.959Z,79.70
2018-03-14T02:47:16.534Z,79.58
2018-03-14T02:49:43.136Z,79.63
2018-03-14T02:52:09.714Z,79.23
2018-03-14T02:54:36.357Z,78.96
2018-03-14T02:57:02.931Z,79.15
2018-03-14T02:59:30.253Z,79.23
2018-03-14T03:01:56.838Z,79.41
2018-03-14T03:04:23.462Z,79.01
2018-03-14T03:06:50.218Z,78.94
2018-03-14T03:09:16.841Z,79.14
2018-03-14T03:11:43.487Z,79.08
2018-03-14T03:14:10.080Z,79.54
2018-03-14T03:16:36.695Z,79.32
2018-03-14T03:19:03.394Z,79.33
2018-03-14T03:21:30.018Z,79.26
2018-03-14T03:23:56.597Z,79.27
2018-03-14T03:26:23.223Z,79.47
2018-03-14T03:28:49.793Z,79.45
2018-03-14T03:31:16.395Z,79.56
2018-03-14T03:33:42.963Z,79.30
2018-03-14T03:36:09.554Z,79.13
2018-03-14T03:38:36.126Z,79.11
2018-03-14T03:41:02.713Z,79.34
2018-03-14T03:43:29.308Z,79.27
2018-03-14T03:45:55.896Z,78.95
2018-03-14T03:48:22.484Z,78.75
2018-03-14T03:50:49.115Z,78.93
2018-03-14T03:53:15.730Z,79.05
2018-03-14T03:55:42.290Z,79.01
2018-03-14T03:58:09.555Z,79.16
2018-03-14T04:00:36.181Z,78.92
2018-03-14T04:03:02.762Z,78.45
2018-03-14T04:05:30.066Z,78.37
2018-03-14T04:07:56.667Z,78.15
2018-03-14T04:10:23.249Z,78.12
2018-03-14T04:12:49.827Z,78.60
2018-03-14T04:15:16.619Z,78.41
2018-03-14T04:17:43.166Z,78.19
2018-03-14T04:20:09.763Z,78.31
2018-03-14T04:22:36.388Z,78.55
2018-03-14T04:25:03.015Z,78.38
2018-03-14T04:27:30.366Z,78.27
2018-03-14T04:29:57.703Z,78.43
2018-03-14T04:32:24.286Z,78.09
2018-03-14T04:34:50.852Z,77.95
2018-03-14T04:37:17.454Z,78.10
2018-03-14T04:39:44.054Z,78.30
2018-03-14T04:42:11.404Z,78.21
2018-03-14T04:44:38.771Z,77.84
2018-03-14T04:47:05.374Z,78.13
2018-03-14T04:49:31.967Z,78.50
2018-03-14T04:51:58.562Z,78.57
2018-03-14T04:54:25.217Z,78.33
2018-03-14T04:56:51.836Z,78.40
2018-03-14T04:59:18.510Z,78.42
2018-03-14T05:01:45.128Z,78.01
2018-03-14T05:04:12.449Z,77.86
2018-03-14T05:06:39.039Z,77.77
2018-03-14T05:09:05.664Z,77.88
2018-03-14T05:11:32.251Z,77.82
2018-03-14T05:13:59.027Z,77.81
2018-03-14T05:16:26.328Z,77.59
2018-03-14T05:18:52.935Z,77.56
2018-03-14T05:21:19.597Z,77.80
2018-03-14T05:23:46.492Z,77.79
2018-03-14T05:26:13.951Z,77.81
2018-03-14T05:28:41.330Z,77.71
2018-03-14T05:31:07.930Z,77.81
2018-03-14T05:33:34.527Z,77.68
2018-03-14T05:36:02.127Z,77.63
2018-03-14T05:38:28.737Z,77.53
2018-03-14T05:40:55.382Z,77.52
2018-03-14T05:43:21.970Z,77.03
2018-03-14T05:45:48.581Z,76.71
2018-03-14T05:48:15.996Z,76.92
2018-03-14T05:50:42.582Z,77.02
2018-03-14T05:53:09.150Z,76.98
2018-03-14T05:55:35.755Z,76.80
2018-03-14T05:58:02.350Z,76.67
2018-03-14T06:00:28.969Z,76.64
2018-03-14T06:02:55.580Z,76.81
2018-03-14T06:05:23.117Z,76.84
2018-03-14T06:07:49.670Z,76.78
2018-03-14T06:10:16.558Z,76.95
2018-03-14T06:12:43.223Z,76.96
2018-03-14T06:15:10.775Z,77.00
2018-03-14T06:17:37.357Z,76.78
2018-03-14T06:20:04.046Z,76.55
2018-03-14T06:22:30.630Z,76.59
2018-03-14T06:24:57.227Z,76.73
2018-03-14T06:27:23.800Z,75.99
2018-03-14T06:29:50.491Z,75.53
2018-03-14T06:32:17.033Z,75.49
2018-03-14T06:34:44.375Z,76.24
2018-03-14T06:37:10.992Z,76.56
2018-03-14T06:39:37.586Z,75.14
2018-03-14T06:42:04.309Z,74.62
2018-03-14T06:44:31.660Z,74.03
2018-03-14T06:46:59.098Z,74.71
2018-03-14T06:49:25.671Z,75.76
2018-03-14T06:51:52.335Z,76.25
2018-03-14T06:54:18.998Z,76.01
2018-03-14T06:56:45.592Z,76.04
2018-03-14T06:59:30.825Z,76.01
2018-03-14T07:02:15.703Z,75.70
2018-03-14T07:05:06.639Z,75.54
2018-03-14T07:07:34.052Z,74.28
2018-03-14T07:10:00.633Z,73.98
2018-03-14T07:12:27.991Z,73.31
2018-03-14T07:14:55.314Z,73.39
2018-03-14T07:17:23.654Z,73.20
2018-03-14T07:19:50.239Z,73.21
2018-03-14T07:22:16.992Z,72.01
2018-03-14T07:24:44.374Z,71.61
2018-03-14T07:27:10.951Z,71.30
2018-03-14T07:29:38.315Z,70.88
2018-03-14T07:32:04.938Z,70.63
2018-03-14T07:34:31.609Z,70.73
2018-03-14T07:36:58.928Z,71.27
2018-03-14T07:39:25.540Z,70.49
2018-03-14T07:41:52.149Z,69.96
2018-03-14T07:44:18.756Z,70.03
2018-03-14T07:46:45.323Z,69.27
2018-03-14T07:49:11.896Z,67.96
2018-03-14T07:51:38.484Z,65.46
2018-03-14T07:54:05.190Z,60.96
2018-03-14T07:56:31.800Z,59.90
2018-03-14T07:58:59.235Z,58.47
2018-03-14T08:01:25.765Z,55.79
2018-03-14T08:03:52.355Z,54.43
2018-03-14T08:06:19.762Z,56.39
2018-03-14T08:08:46.368Z,57.65
2018-03-14T08:11:13.964Z,57.27
2018-03-14T08:13:40.692Z,57.71
2018-03-14T08:16:07.398Z,57.71
2018-03-14T08:18:34.000Z,58.73
2018-03-14T08:21:00.627Z,59.61
2018-03-14T08:23:28.542Z,58.14
2018-03-14T08:25:55.215Z,57.11
2018-03-14T08:28:21.836Z,57.16
2018-03-14T08:30:49.158Z,58.31
2018-03-14T08:33:15.798Z,57.32
2018-03-14T08:35:42.378Z,57.82
2018-03-14T08:38:09.621Z,59.43
2018-03-14T08:40:36.242Z,59.68
2018-03-14T08:43:02.886Z,56.54
2018-03-14T08:45:30.259Z,53.96
2018-03-14T08:47:56.862Z,51.17
2018-03-14T08:50:24.240Z,50.47
2018-03-14T08:52:50.802Z,49.94
2018-03-14T08:55:17.382Z,46.62
2018-03-14T08:57:43.938Z,46.76
2018-03-14T09:00:10.549Z,46.33
2018-03-14T09:02:37.137Z,45.86
2018-03-14T09:05:03.995Z,43.10
2018-03-14T09:07:30.664Z,43.48
2018-03-14T09:09:57.262Z,43.49
2018-03-14T09:12:23.833Z,45.05
2018-03-14T09:14:50.410Z,47.23
2018-03-14T09:17:17.022Z,47.66
2018-03-14T09:19:43.627Z,49.60
2018-03-14T09:22:10.275Z,50.62
2018-03-14T09:24:36.866Z,51.52
2018-03-14T09:27:03.501Z,52.68
2018-03-14T09:29:30.139Z,53.00
2018-03-14T09:31:56.964Z,53.07
2018-03-14T09:34:24.560Z,53.05
2018-03-14T09:36:51.166Z,53.31
2018-03-14T09:39:18.541Z,53.45
2018-03-14T09:41:45.131Z,52.65
2018-03-14T09:44:11.800Z,52.14
2018-03-14T09:46:38.394Z,49.61
2018-03-14T09:49:05.035Z,47.53
2018-03-14T09:51:31.676Z,39.42
2018-03-14T09:53:59.072Z,32.44
2018-03-14T09:56:25.719Z,28.81
2018-03-14T09:58:52.577Z,29.14
2018-03-14T10:01:19.201Z,28.26
2018-03-14T10:03:45.820Z,26.85
2018-03-14T10:06:12.459Z,25.82
2018-03-14T10:08:39.782Z,26.95
2018-03-14T10:11:06.446Z,23.54
2018-03-14T10:13:33.776Z,23.83
2018-03-14T10:16:00.387Z,24.07
2018-03-14T10:18:26.983Z,23.72
2018-03-14T10:20:53.620Z,25.07
2018-03-14T10:23:20.257Z,28.88
2018-03-14T10:25:46.881Z,31.57
2018-03-14T10:28:14.228Z,33.19
2018-03-14T10:30:40.812Z,34.63
2018-03-14T10:33:07.398Z,35.51
2018-03-14T10:35:34.007Z,35.74
2018-03-14T10:38:00.598Z,36.03
2018-03-14T10:40:27.174Z,36.80
2018-03-14T10:42:53.757Z,34.39
2018-03-14T10:45:21.963Z,31.10
2018-03-14T10:47:48.550Z,30.06
2018-03-14T10:50:15.129Z,27.24
2018-03-14T10:52:41.714Z,26.96
2018-03-14T10:55:08.557Z,25.71
2018-03-14T10:57:35.983Z,24.55
2018-03-14T11:00:02.596Z,25.95
2018-03-14T11:02:30.152Z,26.43
2018-03-14T11:04:56.722Z,28.00
2018-03-14T11:07:24.121Z,27.96
2018-03-14T11:09:50.711Z,26.41
2018-03-14T11:12:17.328Z,26.91
2018-03-14T11:14:44.741Z,28.38
2018-03-14T11:17:11.357Z,30.66
2018-03-14T11:19:37.997Z,28.74
2018-03-14T11:22:04.640Z,30.00
2018-03-14T11:24:31.311Z,30.83
2018-03-14T11:26:59.691Z,31.32
2018-03-14T11:29:27.015Z,32.85
2018-03-14T11:31:53.673Z,34.69
2018-03-14T11:34:20.347Z,36.03
2018-03-14T11:36:46.902Z,36.62
2018-03-14T11:39:13.484Z,36.44
2018-03-14T11:41:40.130Z,37.86
2018-03-14T11:44:06.706Z,37.01
2018-03-14T11:46:33.394Z,36.86
2018-03-14T11:48:59.974Z,37.23
2018-03-14T11:51:26.570Z,36.04
2018-03-14T11:53:53.908Z,36.75
2018-03-14T11:56:20.479Z,36.21
2018-03-14T11:58:47.031Z,36.29
2018-03-14T12:01:13.612Z,35.63
2018-03-14T12:03:40.191Z,37.26
2018-03-14T12:06:06.755Z,36.90
2018-03-14T12:08:33.346Z,37.16
2018-03-14T12:11:00.679Z,35.92
2018-03-14T12:13:27.297Z,37.59
2018-03-14T12:15:53.960Z,36.67
2018-03-14T12:18:21.345Z,37.50
2018-03-14T12:20:48.218Z,39.90
2018-03-14T12:23:15.670Z,38.39
2018-03-14T12:25:42.252Z,38.69
2018-03-14T12:28:08.859Z,38.55
2018-03-14T12:30:35.443Z,39.23
2018-03-14T12:33:02.054Z,38.54
2018-03-14T12:35:28.925Z,38.37
2018-03-14T12:37:55.499Z,38.05
2018-03-14T12:40:22.098Z,38.97
2018-03-14T12:42:48.703Z,38.65
2018-03-14T12:45:15.277Z,38.11
2018-03-14T12:47:41.880Z,38.30
2018-03-14T12:50:08.459Z,38.72
2018-03-14T12:52:35.325Z,37.93
2018-03-14T12:55:01.971Z,37.55
2018-03-14T12:57:28.580Z,37.84
2018-03-14T12:59:55.307Z,37.58
2018-03-14T13:02:21.914Z,37.63
2018-03-14T13:04:48.522Z,37.65
2018-03-14T13:07:15.227Z,37.95
2018-03-14T13:09:41.800Z,39.86
2018-03-14T13:12:08.410Z,38.95
2018-03-14T13:14:35.205Z,38.95
2018-03-14T13:17:01.861Z,39.23
2018-03-14T13:19:29.206Z,38.79
2018-03-14T13:21:55.806Z,39.16
2018-03-14T13:24:22.375Z,40.32
2018-03-14T13:26:49.715Z,40.63
2018-03-14T13:29:16.498Z,39.64
2018-03-14T13:31:43.120Z,40.09
2018-03-14T13:34:10.561Z,40.18
2018-03-14T13:36:37.175Z,41.12
2018-03-14T13:39:03.830Z,41.76
2018-03-14T13:41:30.445Z,40.86
2018-03-14T13:43:57.046Z,40.92
2018-03-14T13:46:23.666Z,41.13
2018-03-14T13:48:50.474Z,42.69
2018-03-14T13:51:17.075Z,43.28
2018-03-14T13:53:43.655Z,43.66
2018-03-14T13:56:11.403Z,42.97
2018-03-14T13:58:38.001Z,42.72
2018-03-14T14:01:04.631Z,43.43
2018-03-14T14:03:31.206Z,42.37
2018-03-14T14:05:57.809Z,42.97
2018-03-14T14:08:24.391Z,42.89
2018-03-14T14:10:50.962Z,43.87
2018-03-14T14:13:17.600Z,42.52
2018-03-14T14:15:44.214Z,43.04
2018-03-14T14:18:11.032Z,42.83
2018-03-14T14:20:37.606Z,43.21
2018-03-14T14:23:05.574Z,42.77
2018-03-14T14:25:32.286Z,43.23
2018-03-14T14:27:58.900Z,44.89
2018-03-14T14:30:25.485Z,44.94
2018-03-14T14:32:53.134Z,43.51
2018-03-14T14:35:19.741Z,43.39
2018-03-14T14:37:46.319Z,43.76
2018-03-14T14:40:13.630Z,43.00
2018-03-14T14:42:40.200Z,42.92
2018-03-14T14:45:06.806Z,43.63
2018-03-14T14:47:33.421Z,43.46
2018-03-14T14:50:00.019Z,43.64
2018-03-14T14:52:26.647Z,43.25
2018-03-14T14:54:53.950Z,43.74
2018-03-14T14:57:20.534Z,44.34
2018-03-14T14:59:47.124Z,43.43
2018-03-14T15:02:13.902Z,43.27
2018-03-14T15:04:40.482Z,42.65
2018-03-14T15:07:07.071Z,43.23
2018-03-14T15:09:33.647Z,43.77
2018-03-14T15:12:00.250Z,43.35
2018-03-14T15:14:27.774Z,43.45
2018-03-14T15:16:54.378Z,43.84
2018-03-14T15:19:20.999Z,43.55
2018-03-14T15:21:47.630Z,43.09
2018-03-14T15:24:14.178Z,43.48
2018-03-14T15:26:41.526Z,43.71
2018-03-14T15:29:08.863Z,43.15
2018-03-14T15:31:35.486Z,43.23
2018-03-14T15:34:02.111Z,43.39
2018-03-14T15:36:28.728Z,44.04
2018-03-14T15:38:55.356Z,43.95
2018-03-14T15:41:21.994Z,43.36
2018-03-14T15:43:48.602Z,44.10
2018-03-14T15:46:16.031Z,44.02
2018-03-14T15:48:43.375Z,44.23
2018-03-14T15:51:09.951Z,44.48
2018-03-14T15:53:37.248Z,44.72
2018-03-14T15:56:04.022Z,44.63
2018-03-14T15:58:31.208Z,44.30
2018-03-14T16:00:57.818Z,45.04
2018-03-14T16:03:24.663Z,45.92
2018-03-14T16:05:51.253Z,46.06
2018-03-14T16:08:17.859Z,46.01
2018-03-14T16:10:45.182Z,46.69
2018-03-14T16:13:11.816Z,46.87
2018-03-14T16:15:38.398Z,46.77
2018-03-14T16:18:05.033Z,46.58
2018-03-14T16:20:31.657Z,46.95
2018-03-14T16:22:58.309Z,46.94
2018-03-14T16:25:25.775Z,47.11
2018-03-14T16:27:52.393Z,47.33
2018-03-14T16:30:18.963Z,47.35
2018-03-14T16:32:45.571Z,47.80
2018-03-14T16:35:12.207Z,47.08
2018-03-14T16:37:38.817Z,47.71
2018-03-14T16:40:06.174Z,48.35
2018-03-14T16:42:32.780Z,48.29
2018-03-14T16:44:59.358Z,48.56
2018-03-14T16:47:26.115Z,48.47
2018-03-14T16:49:52.707Z,48.16
2018-03-14T16:52:20.458Z,48.62
2018-03-14T16:54:47.047Z,48.93
2018-03-14T16:57:13.641Z,48.81
2018-03-14T16:59:40.300Z,48.63
2018-03-14T17:02:07.662Z,49.05
2018-03-14T17:04:34.291Z,49.80
2018-03-14T17:07:01.631Z,49.82
2018-03-14T17:09:29.190Z,49.80
2018-03-14T17:11:55.806Z,49.58
2018-03-14T17:14:27.280Z,49.76
2018-03-14T17:16:49.039Z,50.23
2018-03-14T17:19:15.787Z,50.20
2018-03-14T17:21:42.406Z,50.32
2018-03-14T17:24:09.013Z,50.84
2018-03-14T17:26:35.654Z,51.16
2018-03-14T17:29:02.286Z,51.49
2018-03-14T17:31:29.855Z,51.86
2018-03-14T17:33:57.447Z,51.77
2018-03-14T17:36:24.093Z,51.88
2018-03-14T17:38:50.832Z,51.85
2018-03-14T17:41:17.463Z,52.54
2018-03-14T17:43:44.186Z,52.56
2018-03-14T17:46:10.848Z,52.50
2018-03-14T17:48:37.706Z,52.21
2018-03-14T17:51:04.326Z,52.56
2018-03-14T17:53:30.899Z,52.60
2018-03-14T17:55:57.527Z,53.19
2018-03-14T17:58:24.118Z,52.87
2018-03-14T18:00:51.518Z,53.36
2018-03-14T18:03:18.151Z,53.53
2018-03-14T18:05:44.877Z,53.81
2018-03-14T18:08:11.516Z,54.11
2018-03-14T18:10:38.200Z,53.98
2018-03-14T18:13:04.845Z,54.71
2018-03-14T18:15:31.602Z,55.14
2018-03-14T18:17:58.957Z,55.67
2018-03-14T18:20:25.548Z,55.81
2018-03-14T18:22:53.107Z,56.54
2018-03-14T18:25:19.819Z,57.59
2018-03-14T18:27:47.019Z,57.36
2018-03-14T18:30:13.648Z,57.30
2018-03-14T18:32:40.285Z,57.46
2018-03-14T18:35:06.941Z,58.16
2018-03-14T18:37:33.560Z,57.95
2018-03-14T18:40:00.213Z,58.29
2018-03-14T18:42:28.748Z,59.24
2018-03-14T18:44:55.370Z,59.85
2018-03-14T18:47:21.960Z,59.80
2018-03-14T18:49:49.465Z,59.97
2018-03-14T18:52:16.260Z,59.91
2018-03-14T18:54:43.668Z,59.40
2018-03-14T18:57:10.312Z,59.86
2018-03-14T18:59:36.948Z,60.04
2018-03-14T19:02:03.639Z,60.69
2018-03-14T19:04:31.242Z,61.25
2018-03-14T19:06:57.858Z,60.98
2018-03-14T19:09:24.507Z,60.70
2018-03-14T19:11:51.160Z,60.42
2018-03-14T19:14:17.805Z,61.15
2018-03-14T19:16:44.430Z,60.18
2018-03-14T19:19:11.076Z,60.32
2018-03-14T19:21:37.679Z,60.04
2018-03-14T19:24:05.045Z,59.76
2018-03-14T19:26:31.654Z,60.23
2018-03-14T19:28:58.261Z,59.84
2018-03-14T19:31:25.614Z,59.90
2018-03-14T19:33:52.251Z,60.57
2018-03-14T19:36:19.615Z,61.01
2018-03-14T19:38:46.307Z,60.88
2018-03-14T19:41:13.246Z,60.83
2018-03-14T19:43:39.877Z,60.94
2018-03-14T19:46:07.257Z,61.06
2018-03-14T19:48:33.885Z,61.13
2018-03-14T19:51:00.554Z,61.31
2018-03-14T19:53:27.179Z,61.43
2018-03-14T19:55:53.831Z,61.52
2018-03-14T19:58:21.107Z,61.83
2018-03-14T20:00:47.796Z,62.04
2018-03-14T20:03:14.465Z,62.14
2018-03-14T20:05:41.129Z,62.67
2018-03-14T20:08:07.749Z,63.04
2018-03-14T20:10:34.357Z,63.13
2018-03-14T20:13:00.953Z,63.40
2018-03-14T20:15:28.343Z,63.51
2018-03-14T20:17:54.932Z,63.92
2018-03-14T20:20:22.342Z,64.27
2018-03-14T20:22:49.016Z,64.42
2018-03-14T20:25:15.599Z,64.39
2018-03-14T20:27:42.339Z,64.20
2018-03-14T20:30:09.719Z,64.21
2018-03-14T20:32:36.344Z,64.24
2018-03-14T20:35:02.999Z,64.54
2018-03-14T20:37:29.611Z,64.29
2018-03-14T20:39:56.211Z,64.67
2018-03-14T20:42:23.579Z,64.81
2018-03-14T20:44:50.234Z,65.04
2018-03-14T20:47:16.855Z,65.17
2018-03-14T20:49:43.510Z,65.32
2018-03-14T20:52:10.268Z,65.58
2018-03-14T20:54:36.903Z,65.47
2018-03-14T20:57:03.575Z,65.51
2018-03-14T20:59:30.202Z,65.60
2018-03-14T21:01:57.579Z,65.63
2018-03-14T21:04:24.197Z,65.68
2018-03-14T21:06:50.830Z,65.66
2018-03-14T21:09:17.448Z,65.75
2018-03-14T21:11:44.105Z,65.94
2018-03-14T21:14:10.767Z,66.08
2018-03-14T21:16:37.966Z,66.43
2018-03-14T21:19:04.595Z,66.80
2018-03-14T21:21:31.259Z,66.73
2018-03-14T21:23:57.883Z,67.11
2018-03-14T21:26:24.490Z,67.32
2018-03-14T21:28:51.826Z,67.37
2018-03-14T21:31:18.443Z,67.33
2018-03-14T21:33:45.855Z,67.52
2018-03-14T21:36:12.492Z,67.51
2018-03-14T21:38:39.103Z,67.43
2018-03-14T21:41:06.479Z,67.31
2018-03-14T21:43:33.134Z,67.51
2018-03-14T21:45:59.858Z,67.46
2018-03-14T21:48:26.499Z,67.26
2018-03-14T21:50:53.140Z,67.19
2018-03-14T21:53:19.890Z,67.24
2018-03-14T21:55:46.539Z,67.14
2018-03-14T21:58:13.334Z,66.84
2018-03-14T22:00:39.911Z,67.08
2018-03-14T22:03:06.549Z,67.12
2018-03-14T22:05:33.229Z,67.50
2018-03-14T22:07:59.847Z,67.99
2018-03-14T22:10:26.450Z,68.17
2018-03-14T22:12:53.144Z,68.67
2018-03-14T22:15:19.751Z,69.00
2018-03-14T22:17:46.412Z,69.29
2018-03-14T22:20:13.066Z,69.41
2018-03-14T22:22:40.449Z,69.62
2018-03-14T22:25:07.315Z,69.77
2018-03-14T22:27:33.916Z,69.80
2018-03-14T22:30:00.539Z,69.92
2018-03-14T22:32:27.851Z,69.92
2018-03-14T22:34:54.434Z,69.88
2018-03-14T22:37:21.779Z,69.97
2018-03-14T22:39:49.116Z,69.94
2018-03-14T22:42:15.682Z,69.89
2018-03-14T22:44:43.150Z,69.88
2018-03-14T22:47:09.932Z,69.95
2018-03-14T22:49:36.518Z,69.93
2018-03-14T22:52:03.170Z,69.88
2018-03-14T22:54:29.739Z,69.99
2018-03-14T22:56:56.342Z,70.13
2018-03-14T22:59:22.999Z,70.22
2018-03-14T23:01:49.640Z,70.12
2018-03-14T23:04:16.312Z,70.29
2018-03-14T23:06:42.872Z,70.46
2018-03-14T23:09:09.513Z,70.55
2018-03-14T23:11:36.136Z,70.35
2018-03-14T23:14:03.481Z,70.38
2018-03-14T23:16:30.515Z,70.32
2018-03-14T23:18:57.138Z,70.25
2018-03-14T23:21:23.753Z,70.33
2018-03-14T23:23:50.348Z,70.50
2018-03-14T23:26:18.586Z,70.41
2018-03-14T23:28:45.205Z,70.32
2018-03-14T23:31:11.847Z,70.24
2018-03-14T23:33:38.431Z,70.34
2018-03-14T23:36:05.012Z,70.47
2018-03-14T23:38:31.619Z,70.68
2018-03-14T23:40:59.091Z,70.80
2018-03-14T23:43:25.747Z,70.68
2018-03-14T23:45:52.897Z,70.50
2018-03-14T23:48:19.646Z,70.62
2018-03-14T23:50:46.237Z,71.10
2018-03-14T23:53:13.567Z,71.28
2018-03-14T23:55:40.174Z,71.06
2018-03-14T23:58:06.768Z,70.92
